sensor_id;sensor_type;location;lat;lon;timestamp;P1;durP1;ratioP1;P2;durP2;ratioP2
66633;SDS011;53546;52.184;5.596;2023-03-01T00:00:54;5.35;;;3.85;;
66633;SDS011;53546;52.184;5.596;2023-03-01T00:03:19;6.13;;;3.80;;
66633;SDS011;53546;52.184;5.596;2023-03-01T00:05:45;4.45;;;3.60;;
66633;SDS011;53546;52.184;5.596;2023-03-01T00:08:11;4.30;;;3.25;;
66633;SDS011;53546;52.184;5.596;2023-03-01T00:10:36;5.15;;;3.80;;
66633;SDS011;53546;52.184;5.596;2023-03-01T00:13:02;4.43;;;3.30;;
66633;SDS011;53546;52.184;5.596;2023-03-01T00:15:27;5.63;;;3.65;;
66633;SDS011;53546;52.184;5.596;2023-03-01T00:17:53;5.28;;;4.10;;
66633;SDS011;53546;52.184;5.596;2023-03-01T00:20:18;4.38;;;3.40;;
66633;SDS011;53546;52.184;5.596;2023-03-01T00:22:43;5.10;;;3.60;;
66633;SDS011;53546;52.184;5.596;2023-03-01T00:25:09;4.03;;;3.42;;
66633;SDS011;53546;52.184;5.596;2023-03-01T00:27:34;5.07;;;3.88;;
66633;SDS011;53546;52.184;5.596;2023-03-01T00:29:59;4.72;;;3.33;;
66633;SDS011;53546;52.184;5.596;2023-03-01T00:32:25;4.30;;;3.20;;
66633;SDS011;53546;52.184;5.596;2023-03-01T00:34:50;4.43;;;3.17;;
66633;SDS011;53546;52.184;5.596;2023-03-01T00:37:25;4.55;;;3.40;;
66633;SDS011;53546;52.184;5.596;2023-03-01T00:39:50;5.32;;;3.50;;
66633;SDS011;53546;52.184;5.596;2023-03-01T00:42:16;4.05;;;3.08;;
66633;SDS011;53546;52.184;5.596;2023-03-01T00:44:41;6.90;;;3.40;;
66633;SDS011;53546;52.184;5.596;2023-03-01T00:47:07;3.17;;;2.80;;
66633;SDS011;53546;52.184;5.596;2023-03-01T00:49:33;4.47;;;3.20;;
66633;SDS011;53546;52.184;5.596;2023-03-01T00:51:58;3.85;;;2.88;;
66633;SDS011;53546;52.184;5.596;2023-03-01T00:54:23;5.15;;;3.47;;
66633;SDS011;53546;52.184;5.596;2023-03-01T00:56:49;4.55;;;3.25;;
66633;SDS011;53546;52.184;5.596;2023-03-01T00:59:14;4.30;;;2.95;;
66633;SDS011;53546;52.184;5.596;2023-03-01T01:01:39;4.65;;;3.22;;
66633;SDS011;53546;52.184;5.596;2023-03-01T01:04:06;4.47;;;3.08;;
66633;SDS011;53546;52.184;5.596;2023-03-01T01:06:37;4.00;;;3.20;;
66633;SDS011;53546;52.184;5.596;2023-03-01T01:09:05;3.28;;;2.90;;
66633;SDS011;53546;52.184;5.596;2023-03-01T01:11:32;4.72;;;3.15;;
66633;SDS011;53546;52.184;5.596;2023-03-01T01:13:58;4.40;;;3.08;;
66633;SDS011;53546;52.184;5.596;2023-03-01T01:16:24;4.03;;;2.75;;
66633;SDS011;53546;52.184;5.596;2023-03-01T01:18:52;3.97;;;2.83;;
66633;SDS011;53546;52.184;5.596;2023-03-01T01:21:18;3.28;;;2.72;;
66633;SDS011;53546;52.184;5.596;2023-03-01T01:23:46;3.92;;;2.85;;
66633;SDS011;53546;52.184;5.596;2023-03-01T01:26:12;3.33;;;2.85;;
66633;SDS011;53546;52.184;5.596;2023-03-01T01:28:39;2.90;;;2.53;;
66633;SDS011;53546;52.184;5.596;2023-03-01T01:31:05;3.50;;;2.78;;
66633;SDS011;53546;52.184;5.596;2023-03-01T01:33:30;4.18;;;3.20;;
66633;SDS011;53546;52.184;5.596;2023-03-01T01:35:56;2.88;;;2.50;;
66633;SDS011;53546;52.184;5.596;2023-03-01T01:38:21;3.30;;;2.70;;
66633;SDS011;53546;52.184;5.596;2023-03-01T01:40:47;3.30;;;2.78;;
66633;SDS011;53546;52.184;5.596;2023-03-01T01:43:18;3.85;;;2.75;;
66633;SDS011;53546;52.184;5.596;2023-03-01T01:45:44;2.70;;;2.28;;
66633;SDS011;53546;52.184;5.596;2023-03-01T01:48:10;3.40;;;2.60;;
66633;SDS011;53546;52.184;5.596;2023-03-01T01:50:39;3.28;;;2.60;;
66633;SDS011;53546;52.184;5.596;2023-03-01T01:53:06;4.13;;;2.80;;
66633;SDS011;53546;52.184;5.596;2023-03-01T01:55:43;5.25;;;2.35;;
66633;SDS011;53546;52.184;5.596;2023-03-01T01:58:11;2.90;;;2.40;;
66633;SDS011;53546;52.184;5.596;2023-03-01T02:00:39;3.55;;;2.72;;
66633;SDS011;53546;52.184;5.596;2023-03-01T02:03:07;3.22;;;2.35;;
66633;SDS011;53546;52.184;5.596;2023-03-01T02:05:40;3.42;;;2.50;;
66633;SDS011;53546;52.184;5.596;2023-03-01T02:08:17;4.18;;;2.65;;
66633;SDS011;53546;52.184;5.596;2023-03-01T02:10:43;3.20;;;2.50;;
66633;SDS011;53546;52.184;5.596;2023-03-01T02:13:10;2.85;;;2.30;;
66633;SDS011;53546;52.184;5.596;2023-03-01T02:15:37;3.13;;;2.33;;
66633;SDS011;53546;52.184;5.596;2023-03-01T02:18:04;3.17;;;2.50;;
66633;SDS011;53546;52.184;5.596;2023-03-01T02:22:58;2.80;;;2.40;;
66633;SDS011;53546;52.184;5.596;2023-03-01T02:25:47;2.60;;;2.38;;
66633;SDS011;53546;52.184;5.596;2023-03-01T02:30:40;3.40;;;2.22;;
66633;SDS011;53546;52.184;5.596;2023-03-01T02:33:26;3.03;;;2.30;;
66633;SDS011;53546;52.184;5.596;2023-03-01T02:35:52;3.92;;;2.30;;
66633;SDS011;53546;52.184;5.596;2023-03-01T02:38:19;4.18;;;2.55;;
66633;SDS011;53546;52.184;5.596;2023-03-01T02:40:45;2.95;;;2.20;;
66633;SDS011;53546;52.184;5.596;2023-03-01T02:43:11;2.67;;;2.40;;
66633;SDS011;53546;52.184;5.596;2023-03-01T02:45:37;5.13;;;2.50;;
66633;SDS011;53546;52.184;5.596;2023-03-01T02:48:02;2.70;;;2.42;;
66633;SDS011;53546;52.184;5.596;2023-03-01T02:52:57;3.03;;;2.55;;
66633;SDS011;53546;52.184;5.596;2023-03-01T02:55:27;2.50;;;2.20;;
66633;SDS011;53546;52.184;5.596;2023-03-01T02:57:52;3.22;;;1.92;;
66633;SDS011;53546;52.184;5.596;2023-03-01T03:00:20;2.50;;;2.30;;
66633;SDS011;53546;52.184;5.596;2023-03-01T03:02:48;2.65;;;2.33;;
66633;SDS011;53546;52.184;5.596;2023-03-01T03:05:17;4.72;;;2.20;;
66633;SDS011;53546;52.184;5.596;2023-03-01T03:07:45;6.25;;;2.53;;
66633;SDS011;53546;52.184;5.596;2023-03-01T03:10:16;2.77;;;2.47;;
66633;SDS011;53546;52.184;5.596;2023-03-01T03:12:51;2.75;;;2.40;;
66633;SDS011;53546;52.184;5.596;2023-03-01T03:15:21;2.75;;;2.25;;
66633;SDS011;53546;52.184;5.596;2023-03-01T03:17:47;2.20;;;2.00;;
66633;SDS011;53546;52.184;5.596;2023-03-01T03:20:14;2.72;;;2.17;;
66633;SDS011;53546;52.184;5.596;2023-03-01T03:22:43;3.72;;;2.30;;
66633;SDS011;53546;52.184;5.596;2023-03-01T03:25:13;3.60;;;2.30;;
66633;SDS011;53546;52.184;5.596;2023-03-01T03:27:39;3.03;;;2.35;;
66633;SDS011;53546;52.184;5.596;2023-03-01T03:30:06;2.55;;;2.35;;
66633;SDS011;53546;52.184;5.596;2023-03-01T03:32:37;2.28;;;2.08;;
66633;SDS011;53546;52.184;5.596;2023-03-01T03:35:04;2.40;;;2.20;;
66633;SDS011;53546;52.184;5.596;2023-03-01T03:37:35;2.67;;;2.22;;
66633;SDS011;53546;52.184;5.596;2023-03-01T03:40:20;2.35;;;2.10;;
66633;SDS011;53546;52.184;5.596;2023-03-01T03:42:45;2.55;;;2.30;;
66633;SDS011;53546;52.184;5.596;2023-03-01T03:45:10;2.40;;;1.98;;
66633;SDS011;53546;52.184;5.596;2023-03-01T03:47:36;2.83;;;2.30;;
66633;SDS011;53546;52.184;5.596;2023-03-01T03:50:01;2.53;;;2.30;;
66633;SDS011;53546;52.184;5.596;2023-03-01T03:52:27;2.38;;;2.03;;
66633;SDS011;53546;52.184;5.596;2023-03-01T03:54:52;2.83;;;2.00;;
66633;SDS011;53546;52.184;5.596;2023-03-01T03:57:17;2.42;;;2.10;;
66633;SDS011;53546;52.184;5.596;2023-03-01T03:59:43;2.38;;;1.92;;
66633;SDS011;53546;52.184;5.596;2023-03-01T04:02:08;4.05;;;2.20;;
66633;SDS011;53546;52.184;5.596;2023-03-01T04:04:33;2.40;;;2.20;;
66633;SDS011;53546;52.184;5.596;2023-03-01T04:06:59;2.47;;;2.20;;
66633;SDS011;53546;52.184;5.596;2023-03-01T04:09:24;5.07;;;2.33;;
66633;SDS011;53546;52.184;5.596;2023-03-01T04:11:50;2.30;;;2.10;;
66633;SDS011;53546;52.184;5.596;2023-03-01T04:14:15;2.83;;;2.05;;
66633;SDS011;53546;52.184;5.596;2023-03-01T04:16:40;2.92;;;2.33;;
66633;SDS011;53546;52.184;5.596;2023-03-01T04:19:06;3.13;;;2.10;;
66633;SDS011;53546;52.184;5.596;2023-03-01T04:21:31;2.78;;;2.10;;
66633;SDS011;53546;52.184;5.596;2023-03-01T04:23:57;2.70;;;1.98;;
66633;SDS011;53546;52.184;5.596;2023-03-01T04:26:22;2.30;;;2.00;;
66633;SDS011;53546;52.184;5.596;2023-03-01T04:28:47;2.70;;;1.95;;
66633;SDS011;53546;52.184;5.596;2023-03-01T04:31:15;2.60;;;1.90;;
66633;SDS011;53546;52.184;5.596;2023-03-01T04:33:44;2.15;;;1.83;;
66633;SDS011;53546;52.184;5.596;2023-03-01T04:36:12;2.85;;;2.38;;
66633;SDS011;53546;52.184;5.596;2023-03-01T04:38:38;3.00;;;2.10;;
66633;SDS011;53546;52.184;5.596;2023-03-01T04:41:08;2.13;;;1.90;;
66633;SDS011;53546;52.184;5.596;2023-03-01T04:43:34;2.30;;;2.10;;
66633;SDS011;53546;52.184;5.596;2023-03-01T04:46:04;2.90;;;2.08;;
66633;SDS011;53546;52.184;5.596;2023-03-01T04:48:33;2.28;;;2.00;;
66633;SDS011;53546;52.184;5.596;2023-03-01T04:50:59;2.38;;;1.88;;
66633;SDS011;53546;52.184;5.596;2023-03-01T04:53:25;2.28;;;1.95;;
66633;SDS011;53546;52.184;5.596;2023-03-01T04:55:50;2.70;;;2.05;;
66633;SDS011;53546;52.184;5.596;2023-03-01T04:58:16;1.83;;;1.73;;
66633;SDS011;53546;52.184;5.596;2023-03-01T05:00:41;3.40;;;2.10;;
66633;SDS011;53546;52.184;5.596;2023-03-01T05:03:07;4.00;;;1.90;;
66633;SDS011;53546;52.184;5.596;2023-03-01T05:05:49;2.30;;;1.95;;
66633;SDS011;53546;52.184;5.596;2023-03-01T05:08:17;2.30;;;2.03;;
66633;SDS011;53546;52.184;5.596;2023-03-01T05:10:43;2.00;;;1.80;;
66633;SDS011;53546;52.184;5.596;2023-03-01T05:13:11;2.90;;;2.00;;
66633;SDS011;53546;52.184;5.596;2023-03-01T05:15:38;4.22;;;2.03;;
66633;SDS011;53546;52.184;5.596;2023-03-01T05:18:04;2.42;;;2.10;;
66633;SDS011;53546;52.184;5.596;2023-03-01T05:20:32;3.97;;;2.42;;
66633;SDS011;53546;52.184;5.596;2023-03-01T05:23:01;2.80;;;1.98;;
66633;SDS011;53546;52.184;5.596;2023-03-01T05:25:30;4.32;;;2.05;;
66633;SDS011;53546;52.184;5.596;2023-03-01T05:28:01;2.58;;;2.10;;
66633;SDS011;53546;52.184;5.596;2023-03-01T05:30:29;3.95;;;2.28;;
66633;SDS011;53546;52.184;5.596;2023-03-01T05:32:56;3.15;;;2.10;;
66633;SDS011;53546;52.184;5.596;2023-03-01T05:35:21;8.10;;;2.38;;
66633;SDS011;53546;52.184;5.596;2023-03-01T05:37:47;3.22;;;2.25;;
66633;SDS011;53546;52.184;5.596;2023-03-01T05:40:15;8.98;;;2.30;;
66633;SDS011;53546;52.184;5.596;2023-03-01T05:42:45;4.78;;;2.40;;
66633;SDS011;53546;52.184;5.596;2023-03-01T05:45:11;10.70;;;2.83;;
66633;SDS011;53546;52.184;5.596;2023-03-01T05:47:38;5.20;;;2.80;;
66633;SDS011;53546;52.184;5.596;2023-03-01T05:50:08;7.53;;;2.58;;
66633;SDS011;53546;52.184;5.596;2023-03-01T05:52:35;7.20;;;2.50;;
66633;SDS011;53546;52.184;5.596;2023-03-01T05:55:01;4.95;;;2.92;;
66633;SDS011;53546;52.184;5.596;2023-03-01T05:57:27;8.27;;;3.20;;
66633;SDS011;53546;52.184;5.596;2023-03-01T05:59:53;11.93;;;4.05;;
66633;SDS011;53546;52.184;5.596;2023-03-01T06:02:19;7.00;;;3.10;;
66633;SDS011;53546;52.184;5.596;2023-03-01T06:04:44;11.18;;;4.07;;
66633;SDS011;53546;52.184;5.596;2023-03-01T06:07:10;13.23;;;4.18;;
66633;SDS011;53546;52.184;5.596;2023-03-01T06:09:36;22.30;;;4.45;;
66633;SDS011;53546;52.184;5.596;2023-03-01T06:12:01;14.77;;;4.30;;
66633;SDS011;53546;52.184;5.596;2023-03-01T06:14:26;12.32;;;4.43;;
66633;SDS011;53546;52.184;5.596;2023-03-01T06:16:52;10.18;;;4.07;;
66633;SDS011;53546;52.184;5.596;2023-03-01T06:19:17;17.42;;;4.82;;
66633;SDS011;53546;52.184;5.596;2023-03-01T06:21:43;12.30;;;4.75;;
66633;SDS011;53546;52.184;5.596;2023-03-01T06:24:08;11.02;;;3.75;;
66633;SDS011;53546;52.184;5.596;2023-03-01T06:26:34;10.68;;;3.55;;
66633;SDS011;53546;52.184;5.596;2023-03-01T06:28:59;8.20;;;3.85;;
66633;SDS011;53546;52.184;5.596;2023-03-01T06:31:24;12.57;;;4.00;;
66633;SDS011;53546;52.184;5.596;2023-03-01T06:33:50;8.27;;;3.80;;
66633;SDS011;53546;52.184;5.596;2023-03-01T06:36:15;8.40;;;4.20;;
66633;SDS011;53546;52.184;5.596;2023-03-01T06:38:43;9.35;;;3.92;;
66633;SDS011;53546;52.184;5.596;2023-03-01T06:41:09;7.63;;;3.70;;
66633;SDS011;53546;52.184;5.596;2023-03-01T06:43:34;7.65;;;3.35;;
66633;SDS011;53546;52.184;5.596;2023-03-01T06:46:00;10.60;;;4.10;;
66633;SDS011;53546;52.184;5.596;2023-03-01T06:48:26;7.90;;;3.72;;
66633;SDS011;53546;52.184;5.596;2023-03-01T06:50:51;6.57;;;3.15;;
66633;SDS011;53546;52.184;5.596;2023-03-01T06:53:16;23.92;;;4.10;;
66633;SDS011;53546;52.184;5.596;2023-03-01T06:55:42;5.55;;;3.35;;
66633;SDS011;53546;52.184;5.596;2023-03-01T06:58:08;7.00;;;3.17;;
66633;SDS011;53546;52.184;5.596;2023-03-01T07:00:34;4.78;;;3.03;;
66633;SDS011;53546;52.184;5.596;2023-03-01T07:03:00;10.85;;;2.90;;
66633;SDS011;53546;52.184;5.596;2023-03-01T07:05:27;5.20;;;3.03;;
66633;SDS011;53546;52.184;5.596;2023-03-01T07:07:53;4.90;;;2.90;;
66633;SDS011;53546;52.184;5.596;2023-03-01T07:10:19;3.00;;;2.47;;
66633;SDS011;53546;52.184;5.596;2023-03-01T07:12:45;4.68;;;2.90;;
66633;SDS011;53546;52.184;5.596;2023-03-01T07:15:11;7.03;;;2.97;;
66633;SDS011;53546;52.184;5.596;2023-03-01T07:17:36;4.88;;;2.70;;
66633;SDS011;53546;52.184;5.596;2023-03-01T07:20:02;4.30;;;2.40;;
66633;SDS011;53546;52.184;5.596;2023-03-01T07:22:28;3.45;;;2.42;;
66633;SDS011;53546;52.184;5.596;2023-03-01T07:24:53;5.28;;;2.75;;
66633;SDS011;53546;52.184;5.596;2023-03-01T07:27:19;4.85;;;2.67;;
66633;SDS011;53546;52.184;5.596;2023-03-01T07:29:44;4.38;;;2.30;;
66633;SDS011;53546;52.184;5.596;2023-03-01T07:32:09;3.50;;;2.38;;
66633;SDS011;53546;52.184;5.596;2023-03-01T07:34:35;6.97;;;2.65;;
66633;SDS011;53546;52.184;5.596;2023-03-01T07:37:01;4.10;;;2.35;;
66633;SDS011;53546;52.184;5.596;2023-03-01T07:39:26;8.02;;;2.80;;
66633;SDS011;53546;52.184;5.596;2023-03-01T07:41:52;6.20;;;2.80;;
66633;SDS011;53546;52.184;5.596;2023-03-01T07:44:17;4.18;;;2.70;;
66633;SDS011;53546;52.184;5.596;2023-03-01T07:46:43;9.23;;;3.28;;
66633;SDS011;53546;52.184;5.596;2023-03-01T07:49:08;6.55;;;2.80;;
66633;SDS011;53546;52.184;5.596;2023-03-01T07:51:34;4.68;;;2.72;;
66633;SDS011;53546;52.184;5.596;2023-03-01T07:53:59;5.40;;;2.60;;
66633;SDS011;53546;52.184;5.596;2023-03-01T07:56:25;4.28;;;2.50;;
66633;SDS011;53546;52.184;5.596;2023-03-01T07:58:50;3.80;;;2.80;;
66633;SDS011;53546;52.184;5.596;2023-03-01T08:01:17;3.72;;;2.50;;
66633;SDS011;53546;52.184;5.596;2023-03-01T08:03:45;5.13;;;2.58;;
66633;SDS011;53546;52.184;5.596;2023-03-01T08:06:11;5.75;;;2.85;;
66633;SDS011;53546;52.184;5.596;2023-03-01T08:08:38;3.25;;;2.58;;
66633;SDS011;53546;52.184;5.596;2023-03-01T08:11:04;4.70;;;2.95;;
66633;SDS011;53546;52.184;5.596;2023-03-01T08:13:31;3.92;;;2.83;;
66633;SDS011;53546;52.184;5.596;2023-03-01T08:16:04;4.15;;;2.85;;
66633;SDS011;53546;52.184;5.596;2023-03-01T08:18:31;3.03;;;2.42;;
66633;SDS011;53546;52.184;5.596;2023-03-01T08:21:01;3.08;;;2.80;;
66633;SDS011;53546;52.184;5.596;2023-03-01T08:23:30;2.95;;;2.65;;
66633;SDS011;53546;52.184;5.596;2023-03-01T08:26:02;4.32;;;2.70;;
66633;SDS011;53546;52.184;5.596;2023-03-01T08:28:32;2.88;;;2.58;;
66633;SDS011;53546;52.184;5.596;2023-03-01T08:30:57;4.38;;;2.85;;
66633;SDS011;53546;52.184;5.596;2023-03-01T08:33:23;3.80;;;2.72;;
66633;SDS011;53546;52.184;5.596;2023-03-01T08:35:48;3.08;;;2.67;;
66633;SDS011;53546;52.184;5.596;2023-03-01T08:38:13;4.40;;;2.78;;
66633;SDS011;53546;52.184;5.596;2023-03-01T08:40:39;3.35;;;2.42;;
66633;SDS011;53546;52.184;5.596;2023-03-01T08:43:04;3.75;;;3.00;;
66633;SDS011;53546;52.184;5.596;2023-03-01T08:45:30;3.33;;;2.30;;
66633;SDS011;53546;52.184;5.596;2023-03-01T08:47:55;2.97;;;2.30;;
66633;SDS011;53546;52.184;5.596;2023-03-01T08:50:20;2.55;;;2.17;;
66633;SDS011;53546;52.184;5.596;2023-03-01T08:52:46;2.40;;;2.20;;
66633;SDS011;53546;52.184;5.596;2023-03-01T08:55:11;3.72;;;2.50;;
66633;SDS011;53546;52.184;5.596;2023-03-01T08:57:36;2.83;;;2.00;;
66633;SDS011;53546;52.184;5.596;2023-03-01T09:00:02;2.92;;;2.15;;
66633;SDS011;53546;52.184;5.596;2023-03-01T09:02:28;2.30;;;1.98;;
66633;SDS011;53546;52.184;5.596;2023-03-01T09:04:53;3.13;;;2.35;;
66633;SDS011;53546;52.184;5.596;2023-03-01T09:07:19;3.30;;;2.10;;
66633;SDS011;53546;52.184;5.596;2023-03-01T09:09:44;2.92;;;1.95;;
66633;SDS011;53546;52.184;5.596;2023-03-01T09:12:10;2.13;;;1.90;;
66633;SDS011;53546;52.184;5.596;2023-03-01T09:14:35;3.53;;;2.03;;
66633;SDS011;53546;52.184;5.596;2023-03-01T09:17:03;2.15;;;1.73;;
66633;SDS011;53546;52.184;5.596;2023-03-01T09:19:28;2.25;;;1.77;;
66633;SDS011;53546;52.184;5.596;2023-03-01T09:21:54;3.83;;;1.80;;
66633;SDS011;53546;52.184;5.596;2023-03-01T09:24:22;1.95;;;1.70;;
66633;SDS011;53546;52.184;5.596;2023-03-01T09:26:48;3.42;;;1.73;;
66633;SDS011;53546;52.184;5.596;2023-03-01T09:29:14;1.95;;;1.65;;
66633;SDS011;53546;52.184;5.596;2023-03-01T09:31:41;1.98;;;1.77;;
66633;SDS011;53546;52.184;5.596;2023-03-01T09:34:07;2.10;;;1.70;;
66633;SDS011;53546;52.184;5.596;2023-03-01T09:36:33;1.60;;;1.50;;
66633;SDS011;53546;52.184;5.596;2023-03-01T09:38:58;2.50;;;1.80;;
66633;SDS011;53546;52.184;5.596;2023-03-01T09:47:08;1.52;;;1.40;;
66633;SDS011;53546;52.184;5.596;2023-03-01T09:49:39;1.70;;;1.60;;
66633;SDS011;53546;52.184;5.596;2023-03-01T09:54:58;1.85;;;1.60;;
66633;SDS011;53546;52.184;5.596;2023-03-01T09:57:36;1.50;;;1.40;;
66633;SDS011;53546;52.184;5.596;2023-03-01T10:02:45;1.42;;;1.33;;
66633;SDS011;53546;52.184;5.596;2023-03-01T10:05:19;2.45;;;1.60;;
66633;SDS011;53546;52.184;5.596;2023-03-01T10:08:34;1.58;;;1.40;;
66633;SDS011;53546;52.184;5.596;2023-03-01T10:11:02;1.40;;;1.30;;
66633;SDS011;53546;52.184;5.596;2023-03-01T10:19:00;1.30;;;1.20;;
66633;SDS011;53546;52.184;5.596;2023-03-01T10:21:27;1.15;;;1.05;;
66633;SDS011;53546;52.184;5.596;2023-03-01T10:23:56;1.30;;;1.20;;
66633;SDS011;53546;52.184;5.596;2023-03-01T10:26:38;1.48;;;1.10;;
66633;SDS011;53546;52.184;5.596;2023-03-01T10:29:10;1.65;;;1.20;;
66633;SDS011;53546;52.184;5.596;2023-03-01T10:31:38;1.33;;;1.20;;
66633;SDS011;53546;52.184;5.596;2023-03-01T10:36:40;1.30;;;1.10;;
66633;SDS011;53546;52.184;5.596;2023-03-01T10:39:12;1.70;;;1.15;;
66633;SDS011;53546;52.184;5.596;2023-03-01T10:44:43;1.30;;;1.15;;
66633;SDS011;53546;52.184;5.596;2023-03-01T10:47:18;1.67;;;1.30;;
66633;SDS011;53546;52.184;5.596;2023-03-01T10:52:34;1.80;;;1.30;;
66633;SDS011;53546;52.184;5.596;2023-03-01T10:55:02;3.00;;;1.15;;
66633;SDS011;53546;52.184;5.596;2023-03-01T10:57:39;1.33;;;1.23;;
66633;SDS011;53546;52.184;5.596;2023-03-01T11:00:22;3.47;;;1.10;;
66633;SDS011;53546;52.184;5.596;2023-03-01T11:03:02;1.20;;;1.15;;
66633;SDS011;53546;52.184;5.596;2023-03-01T11:05:33;2.45;;;1.30;;
66633;SDS011;53546;52.184;5.596;2023-03-01T11:07:59;3.58;;;1.20;;
66633;SDS011;53546;52.184;5.596;2023-03-01T11:10:28;2.65;;;1.35;;
66633;SDS011;53546;52.184;5.596;2023-03-01T11:15:31;4.15;;;1.35;;
66633;SDS011;53546;52.184;5.596;2023-03-01T11:17:57;5.78;;;1.60;;
66633;SDS011;53546;52.184;5.596;2023-03-01T11:20:32;6.30;;;1.75;;
66633;SDS011;53546;52.184;5.596;2023-03-01T11:23:01;5.78;;;2.08;;
66633;SDS011;53546;52.184;5.596;2023-03-01T11:25:33;7.25;;;2.25;;
66633;SDS011;53546;52.184;5.596;2023-03-01T11:28:01;3.00;;;1.65;;
66633;SDS011;53546;52.184;5.596;2023-03-01T11:30:31;7.93;;;1.90;;
66633;SDS011;53546;52.184;5.596;2023-03-01T11:36:35;5.40;;;2.00;;
66633;SDS011;53546;52.184;5.596;2023-03-01T11:38:37;4.22;;;1.50;;
66633;SDS011;53546;52.184;5.596;2023-03-01T11:43:45;3.47;;;1.50;;
66633;SDS011;53546;52.184;5.596;2023-03-01T11:51:46;4.87;;;1.60;;
66633;SDS011;53546;52.184;5.596;2023-03-01T12:00:25;2.88;;;1.50;;
66633;SDS011;53546;52.184;5.596;2023-03-01T12:03:00;4.95;;;1.80;;
66633;SDS011;53546;52.184;5.596;2023-03-01T12:06:06;1.98;;;1.30;;
66633;SDS011;53546;52.184;5.596;2023-03-01T12:11:25;2.38;;;1.40;;
66633;SDS011;53546;52.184;5.596;2023-03-01T12:22:09;3.33;;;1.58;;
66633;SDS011;53546;52.184;5.596;2023-03-01T12:25:08;4.03;;;1.20;;
66633;SDS011;53546;52.184;5.596;2023-03-01T12:30:37;3.38;;;1.60;;
66633;SDS011;53546;52.184;5.596;2023-03-01T12:33:21;2.20;;;1.42;;
66633;SDS011;53546;52.184;5.596;2023-03-01T12:42:29;3.15;;;1.38;;
66633;SDS011;53546;52.184;5.596;2023-03-01T12:51:04;1.60;;;1.30;;
66633;SDS011;53546;52.184;5.596;2023-03-01T12:53:36;2.60;;;1.25;;
66633;SDS011;53546;52.184;5.596;2023-03-01T12:56:05;1.98;;;1.27;;
66633;SDS011;53546;52.184;5.596;2023-03-01T12:58:34;1.45;;;1.30;;
66633;SDS011;53546;52.184;5.596;2023-03-01T13:01:40;1.88;;;1.13;;
66633;SDS011;53546;52.184;5.596;2023-03-01T13:07:16;2.38;;;1.42;;
66633;SDS011;53546;52.184;5.596;2023-03-01T13:17:48;1.58;;;1.20;;
66633;SDS011;53546;52.184;5.596;2023-03-01T13:20:32;1.35;;;1.23;;
66633;SDS011;53546;52.184;5.596;2023-03-01T13:23:00;1.20;;;1.10;;
66633;SDS011;53546;52.184;5.596;2023-03-01T13:25:31;2.13;;;1.30;;
66633;SDS011;53546;52.184;5.596;2023-03-01T13:30:59;1.15;;;1.05;;
66633;SDS011;53546;52.184;5.596;2023-03-01T13:35:54;1.50;;;1.23;;
66633;SDS011;53546;52.184;5.596;2023-03-01T13:38:36;1.10;;;1.00;;
66633;SDS011;53546;52.184;5.596;2023-03-01T13:44:37;2.70;;;1.20;;
66633;SDS011;53546;52.184;5.596;2023-03-01T13:46:58;1.60;;;1.20;;
66633;SDS011;53546;52.184;5.596;2023-03-01T13:49:27;1.23;;;1.10;;
66633;SDS011;53546;52.184;5.596;2023-03-01T13:51:54;2.03;;;1.33;;
66633;SDS011;53546;52.184;5.596;2023-03-01T13:54:38;0.95;;;0.95;;
66633;SDS011;53546;52.184;5.596;2023-03-01T13:57:03;1.48;;;1.15;;
66633;SDS011;53546;52.184;5.596;2023-03-01T13:59:29;0.93;;;0.93;;
66633;SDS011;53546;52.184;5.596;2023-03-01T14:01:59;1.50;;;1.40;;
66633;SDS011;53546;52.184;5.596;2023-03-01T14:04:26;1.80;;;1.20;;
66633;SDS011;53546;52.184;5.596;2023-03-01T14:07:19;1.50;;;1.38;;
66633;SDS011;53546;52.184;5.596;2023-03-01T14:09:52;1.20;;;1.10;;
66633;SDS011;53546;52.184;5.596;2023-03-01T14:22:35;2.17;;;1.30;;
66633;SDS011;53546;52.184;5.596;2023-03-01T14:25:03;2.42;;;1.40;;
66633;SDS011;53546;52.184;5.596;2023-03-01T14:27:38;1.75;;;1.45;;
66633;SDS011;53546;52.184;5.596;2023-03-01T14:32:57;3.67;;;1.27;;
66633;SDS011;53546;52.184;5.596;2023-03-01T14:35:25;1.52;;;1.40;;
66633;SDS011;53546;52.184;5.596;2023-03-01T14:37:55;1.60;;;1.30;;
66633;SDS011;53546;52.184;5.596;2023-03-01T14:40:22;4.65;;;2.17;;
66633;SDS011;53546;52.184;5.596;2023-03-01T14:42:49;9.13;;;2.30;;
66633;SDS011;53546;52.184;5.596;2023-03-01T14:45:15;3.50;;;2.17;;
66633;SDS011;53546;52.184;5.596;2023-03-01T14:47:43;7.25;;;2.28;;
66633;SDS011;53546;52.184;5.596;2023-03-01T14:50:28;5.05;;;1.98;;
66633;SDS011;53546;52.184;5.596;2023-03-01T14:52:57;3.97;;;2.05;;
66633;SDS011;53546;52.184;5.596;2023-03-01T14:55:25;3.97;;;2.17;;
66633;SDS011;53546;52.184;5.596;2023-03-01T14:57:54;2.42;;;1.77;;
66633;SDS011;53546;52.184;5.596;2023-03-01T15:00:28;5.78;;;2.03;;
66633;SDS011;53546;52.184;5.596;2023-03-01T15:02:55;4.40;;;2.00;;
66633;SDS011;53546;52.184;5.596;2023-03-01T15:05:32;4.13;;;1.92;;
66633;SDS011;53546;52.184;5.596;2023-03-01T15:07:58;4.57;;;2.10;;
66633;SDS011;53546;52.184;5.596;2023-03-01T15:10:29;3.65;;;2.05;;
66633;SDS011;53546;52.184;5.596;2023-03-01T15:13:09;5.93;;;1.73;;
66633;SDS011;53546;52.184;5.596;2023-03-01T15:15:36;4.95;;;1.80;;
66633;SDS011;53546;52.184;5.596;2023-03-01T15:18:05;4.97;;;1.77;;
66633;SDS011;53546;52.184;5.596;2023-03-01T15:20:55;3.70;;;2.20;;
66633;SDS011;53546;52.184;5.596;2023-03-01T15:23:22;2.75;;;1.70;;
66633;SDS011;53546;52.184;5.596;2023-03-01T15:25:50;3.00;;;1.42;;
66633;SDS011;53546;52.184;5.596;2023-03-01T15:28:21;3.10;;;1.75;;
66633;SDS011;53546;52.184;5.596;2023-03-01T15:30:55;3.20;;;1.70;;
66633;SDS011;53546;52.184;5.596;2023-03-01T15:35:58;3.80;;;1.60;;
66633;SDS011;53546;52.184;5.596;2023-03-01T15:38:31;2.28;;;1.35;;
66633;SDS011;53546;52.184;5.596;2023-03-01T15:44:17;1.77;;;1.40;;
66633;SDS011;53546;52.184;5.596;2023-03-01T15:47:08;1.85;;;1.50;;
66633;SDS011;53546;52.184;5.596;2023-03-01T15:49:48;2.70;;;1.70;;
66633;SDS011;53546;52.184;5.596;2023-03-01T15:52:27;2.08;;;1.65;;
66633;SDS011;53546;52.184;5.596;2023-03-01T15:54:56;1.75;;;1.42;;
66633;SDS011;53546;52.184;5.596;2023-03-01T15:57:24;3.13;;;1.90;;
66633;SDS011;53546;52.184;5.596;2023-03-01T15:59:50;2.88;;;1.52;;
66633;SDS011;53546;52.184;5.596;2023-03-01T16:02:15;10.50;;;1.63;;
66633;SDS011;53546;52.184;5.596;2023-03-01T16:04:41;2.47;;;1.52;;
66633;SDS011;53546;52.184;5.596;2023-03-01T16:07:08;2.50;;;1.63;;
66633;SDS011;53546;52.184;5.596;2023-03-01T16:09:34;2.65;;;1.50;;
66633;SDS011;53546;52.184;5.596;2023-03-01T16:12:00;4.78;;;1.85;;
66633;SDS011;53546;52.184;5.596;2023-03-01T16:14:26;2.55;;;1.40;;
66633;SDS011;53546;52.184;5.596;2023-03-01T16:16:52;2.35;;;1.55;;
66633;SDS011;53546;52.184;5.596;2023-03-01T16:19:17;3.30;;;1.40;;
66633;SDS011;53546;52.184;5.596;2023-03-01T16:21:43;1.63;;;1.50;;
66633;SDS011;53546;52.184;5.596;2023-03-01T16:24:11;1.50;;;1.40;;
66633;SDS011;53546;52.184;5.596;2023-03-01T16:26:37;1.88;;;1.38;;
66633;SDS011;53546;52.184;5.596;2023-03-01T16:29:03;3.47;;;1.70;;
66633;SDS011;53546;52.184;5.596;2023-03-01T16:31:29;2.45;;;1.52;;
66633;SDS011;53546;52.184;5.596;2023-03-01T16:33:55;2.13;;;1.50;;
66633;SDS011;53546;52.184;5.596;2023-03-01T16:36:21;3.30;;;1.95;;
66633;SDS011;53546;52.184;5.596;2023-03-01T16:38:51;1.55;;;1.38;;
66633;SDS011;53546;52.184;5.596;2023-03-01T16:41:18;9.43;;;1.63;;
66633;SDS011;53546;52.184;5.596;2023-03-01T16:43:45;2.03;;;1.60;;
66633;SDS011;53546;52.184;5.596;2023-03-01T16:46:17;2.45;;;1.60;;
66633;SDS011;53546;52.184;5.596;2023-03-01T16:48:45;1.60;;;1.50;;
66633;SDS011;53546;52.184;5.596;2023-03-01T16:51:10;1.88;;;1.50;;
66633;SDS011;53546;52.184;5.596;2023-03-01T16:53:36;3.05;;;1.48;;